sensor_id;sensor_type;location;lat;lon;timestamp;P1;durP1;ratioP1;P2;durP2;ratioP2
71572;SDS011;59408;51.032;9.410;2023-02-28T00:02:06;5.00;;;2.10;;
71572;SDS011;59408;51.032;9.410;2023-02-28T00:04:34;5.45;;;2.10;;
71572;SDS011;59408;51.032;9.410;2023-02-28T00:07:01;6.13;;;2.00;;
71572;SDS011;59408;51.032;9.410;2023-02-28T00:09:28;5.93;;;2.20;;
71572;SDS011;59408;51.032;9.410;2023-02-28T00:11:54;6.45;;;2.40;;
71572;SDS011;59408;51.032;9.410;2023-02-28T00:14:21;6.17;;;2.37;;
71572;SDS011;59408;51.032;9.410;2023-02-28T00:16:47;5.55;;;2.00;;
71572;SDS011;59408;51.032;9.410;2023-02-28T00:19:14;6.18;;;2.35;;
71572;SDS011;59408;51.032;9.410;2023-02-28T00:21:42;5.65;;;2.20;;
71572;SDS011;59408;51.032;9.410;2023-02-28T00:24:08;5.93;;;2.60;;
71572;SDS011;59408;51.032;9.410;2023-02-28T00:26:35;6.70;;;2.27;;
71572;SDS011;59408;51.032;9.410;2023-02-28T00:29:02;6.40;;;2.60;;
71572;SDS011;59408;51.032;9.410;2023-02-28T00:31:28;5.30;;;2.30;;
71572;SDS011;59408;51.032;9.410;2023-02-28T00:33:55;6.50;;;2.42;;
71572;SDS011;59408;51.032;9.410;2023-02-28T00:36:22;6.78;;;2.60;;
71572;SDS011;59408;51.032;9.410;2023-02-28T00:38:50;5.53;;;2.03;;
71572;SDS011;59408;51.032;9.410;2023-02-28T00:41:16;5.82;;;2.47;;
71572;SDS011;59408;51.032;9.410;2023-02-28T00:43:43;5.65;;;2.70;;
71572;SDS011;59408;51.032;9.410;2023-02-28T00:46:10;6.18;;;2.28;;
71572;SDS011;59408;51.032;9.410;2023-02-28T00:48:36;6.55;;;2.50;;
71572;SDS011;59408;51.032;9.410;2023-02-28T00:51:03;5.30;;;2.13;;
71572;SDS011;59408;51.032;9.410;2023-02-28T00:53:30;7.82;;;2.20;;
71572;SDS011;59408;51.032;9.410;2023-02-28T00:55:58;7.13;;;2.75;;
71572;SDS011;59408;51.032;9.410;2023-02-28T00:58:25;5.57;;;2.10;;
71572;SDS011;59408;51.032;9.410;2023-02-28T01:00:52;5.75;;;2.20;;
71572;SDS011;59408;51.032;9.410;2023-02-28T01:03:19;5.63;;;2.37;;
71572;SDS011;59408;51.032;9.410;2023-02-28T01:05:46;6.88;;;2.30;;
71572;SDS011;59408;51.032;9.410;2023-02-28T01:08:13;6.75;;;2.50;;
71572;SDS011;59408;51.032;9.410;2023-02-28T01:10:41;5.30;;;2.10;;
71572;SDS011;59408;51.032;9.410;2023-02-28T01:13:09;5.28;;;2.33;;
71572;SDS011;59408;51.032;9.410;2023-02-28T01:15:37;5.47;;;2.20;;
71572;SDS011;59408;51.032;9.410;2023-02-28T01:18:06;6.88;;;3.13;;
71572;SDS011;59408;51.032;9.410;2023-02-28T01:20:33;6.03;;;2.55;;
71572;SDS011;59408;51.032;9.410;2023-02-28T01:23:02;5.15;;;2.40;;
71572;SDS011;59408;51.032;9.410;2023-02-28T01:25:29;6.38;;;2.60;;
71572;SDS011;59408;51.032;9.410;2023-02-28T01:27:56;5.03;;;2.07;;
71572;SDS011;59408;51.032;9.410;2023-02-28T01:30:24;6.13;;;2.67;;
71572;SDS011;59408;51.032;9.410;2023-02-28T01:32:50;6.13;;;2.85;;
71572;SDS011;59408;51.032;9.410;2023-02-28T01:35:17;6.03;;;2.75;;
71572;SDS011;59408;51.032;9.410;2023-02-28T01:37:43;6.45;;;2.85;;
71572;SDS011;59408;51.032;9.410;2023-02-28T01:40:11;5.93;;;2.10;;
71572;SDS011;59408;51.032;9.410;2023-02-28T01:42:38;6.35;;;2.65;;
71572;SDS011;59408;51.032;9.410;2023-02-28T01:45:08;5.78;;;2.58;;
71572;SDS011;59408;51.032;9.410;2023-02-28T01:47:46;7.70;;;2.55;;
71572;SDS011;59408;51.032;9.410;2023-02-28T01:50:17;6.85;;;2.80;;
71572;SDS011;59408;51.032;9.410;2023-02-28T01:52:46;6.20;;;2.40;;
71572;SDS011;59408;51.032;9.410;2023-02-28T01:55:14;6.03;;;2.83;;
71572;SDS011;59408;51.032;9.410;2023-02-28T01:57:45;5.63;;;2.58;;
71572;SDS011;59408;51.032;9.410;2023-02-28T02:00:15;6.88;;;2.55;;
71572;SDS011;59408;51.032;9.410;2023-02-28T02:02:45;6.28;;;2.40;;
71572;SDS011;59408;51.032;9.410;2023-02-28T02:05:17;5.40;;;2.63;;
71572;SDS011;59408;51.032;9.410;2023-02-28T02:07:46;5.13;;;2.13;;
71572;SDS011;59408;51.032;9.410;2023-02-28T02:10:17;5.43;;;2.08;;
71572;SDS011;59408;51.032;9.410;2023-02-28T02:12:50;5.25;;;2.30;;
71572;SDS011;59408;51.032;9.410;2023-02-28T02:15:26;6.53;;;2.75;;
71572;SDS011;59408;51.032;9.410;2023-02-28T02:18:01;5.77;;;2.50;;
71572;SDS011;59408;51.032;9.410;2023-02-28T02:20:46;5.53;;;2.33;;
71572;SDS011;59408;51.032;9.410;2023-02-28T02:23:45;6.28;;;2.60;;
71572;SDS011;59408;51.032;9.410;2023-02-28T02:26:49;5.97;;;2.35;;
71572;SDS011;59408;51.032;9.410;2023-02-28T02:29:34;5.40;;;2.58;;
71572;SDS011;59408;51.032;9.410;2023-02-28T02:35:15;6.35;;;2.35;;
71572;SDS011;59408;51.032;9.410;2023-02-28T02:37:51;8.00;;;2.33;;
71572;SDS011;59408;51.032;9.410;2023-02-28T02:40:27;6.22;;;2.55;;
71572;SDS011;59408;51.032;9.410;2023-02-28T02:43:01;6.40;;;3.00;;
71572;SDS011;59408;51.032;9.410;2023-02-28T02:45:31;6.40;;;2.80;;
71572;SDS011;59408;51.032;9.410;2023-02-28T02:48:00;5.70;;;2.50;;
71572;SDS011;59408;51.032;9.410;2023-02-28T02:50:30;5.82;;;2.55;;
71572;SDS011;59408;51.032;9.410;2023-02-28T02:53:00;5.05;;;2.15;;
71572;SDS011;59408;51.032;9.410;2023-02-28T02:55:30;6.65;;;2.70;;
71572;SDS011;59408;51.032;9.410;2023-02-28T02:57:59;7.00;;;2.80;;
71572;SDS011;59408;51.032;9.410;2023-02-28T03:00:30;5.80;;;2.42;;
71572;SDS011;59408;51.032;9.410;2023-02-28T03:03:00;6.15;;;2.22;;
71572;SDS011;59408;51.032;9.410;2023-02-28T03:05:30;6.30;;;2.35;;
71572;SDS011;59408;51.032;9.410;2023-02-28T03:08:03;5.70;;;2.80;;
71572;SDS011;59408;51.032;9.410;2023-02-28T03:10:35;5.90;;;2.60;;
71572;SDS011;59408;51.032;9.410;2023-02-28T03:13:08;6.15;;;2.30;;
71572;SDS011;59408;51.032;9.410;2023-02-28T03:15:44;6.38;;;2.72;;
71572;SDS011;59408;51.032;9.410;2023-02-28T03:18:24;5.75;;;2.30;;
71572;SDS011;59408;51.032;9.410;2023-02-28T03:21:06;6.07;;;2.40;;
71572;SDS011;59408;51.032;9.410;2023-02-28T03:23:41;5.17;;;2.20;;
71572;SDS011;59408;51.032;9.410;2023-02-28T03:26:12;6.30;;;2.38;;
71572;SDS011;59408;51.032;9.410;2023-02-28T03:28:43;5.38;;;2.20;;
71572;SDS011;59408;51.032;9.410;2023-02-28T03:31:18;5.82;;;2.20;;
71572;SDS011;59408;51.032;9.410;2023-02-28T03:33:48;5.72;;;2.45;;
71572;SDS011;59408;51.032;9.410;2023-02-28T03:36:21;5.77;;;2.37;;
71572;SDS011;59408;51.032;9.410;2023-02-28T03:38:51;5.70;;;2.70;;
71572;SDS011;59408;51.032;9.410;2023-02-28T03:41:24;6.30;;;2.45;;
71572;SDS011;59408;51.032;9.410;2023-02-28T03:43:55;6.50;;;2.35;;
71572;SDS011;59408;51.032;9.410;2023-02-28T03:46:26;6.30;;;2.45;;
71572;SDS011;59408;51.032;9.410;2023-02-28T03:48:57;5.33;;;2.40;;
71572;SDS011;59408;51.032;9.410;2023-02-28T03:51:32;5.70;;;2.40;;
71572;SDS011;59408;51.032;9.410;2023-02-28T03:54:03;5.93;;;2.40;;
71572;SDS011;59408;51.032;9.410;2023-02-28T03:56:32;6.43;;;2.60;;
71572;SDS011;59408;51.032;9.410;2023-02-28T03:59:04;6.88;;;2.78;;
71572;SDS011;59408;51.032;9.410;2023-02-28T04:01:38;6.20;;;2.87;;
71572;SDS011;59408;51.032;9.410;2023-02-28T04:04:07;6.28;;;2.70;;
71572;SDS011;59408;51.032;9.410;2023-02-28T04:06:36;5.50;;;2.35;;
71572;SDS011;59408;51.032;9.410;2023-02-28T04:09:03;5.72;;;2.60;;
71572;SDS011;59408;51.032;9.410;2023-02-28T04:11:32;6.20;;;2.65;;
71572;SDS011;59408;51.032;9.410;2023-02-28T04:14:00;6.07;;;2.50;;
71572;SDS011;59408;51.032;9.410;2023-02-28T04:16:27;5.00;;;2.10;;
71572;SDS011;59408;51.032;9.410;2023-02-28T04:19:01;5.93;;;2.60;;
71572;SDS011;59408;51.032;9.410;2023-02-28T04:21:28;5.18;;;2.13;;
71572;SDS011;59408;51.032;9.410;2023-02-28T04:23:57;5.18;;;2.35;;
71572;SDS011;59408;51.032;9.410;2023-02-28T04:26:23;5.60;;;2.60;;
71572;SDS011;59408;51.032;9.410;2023-02-28T04:28:50;5.70;;;2.55;;
71572;SDS011;59408;51.032;9.410;2023-02-28T04:31:16;5.80;;;2.08;;
71572;SDS011;59408;51.032;9.410;2023-02-28T04:33:43;5.63;;;2.22;;
71572;SDS011;59408;51.032;9.410;2023-02-28T04:36:10;7.88;;;2.50;;
71572;SDS011;59408;51.032;9.410;2023-02-28T04:38:37;4.63;;;1.97;;
71572;SDS011;59408;51.032;9.410;2023-02-28T04:41:06;4.80;;;2.08;;
71572;SDS011;59408;51.032;9.410;2023-02-28T04:43:32;6.00;;;2.08;;
71572;SDS011;59408;51.032;9.410;2023-02-28T04:46:00;5.53;;;2.30;;
71572;SDS011;59408;51.032;9.410;2023-02-28T04:48:29;5.43;;;2.28;;
71572;SDS011;59408;51.032;9.410;2023-02-28T04:50:59;7.43;;;2.40;;
71572;SDS011;59408;51.032;9.410;2023-02-28T04:53:27;5.13;;;2.05;;
71572;SDS011;59408;51.032;9.410;2023-02-28T04:55:54;5.72;;;2.33;;
71572;SDS011;59408;51.032;9.410;2023-02-28T04:58:22;5.15;;;2.00;;
71572;SDS011;59408;51.032;9.410;2023-02-28T05:00:48;5.88;;;2.53;;
71572;SDS011;59408;51.032;9.410;2023-02-28T05:03:15;5.20;;;2.07;;
71572;SDS011;59408;51.032;9.410;2023-02-28T05:05:42;4.72;;;2.00;;
71572;SDS011;59408;51.032;9.410;2023-02-28T05:08:08;6.65;;;2.20;;
71572;SDS011;59408;51.032;9.410;2023-02-28T05:10:35;6.07;;;2.05;;
71572;SDS011;59408;51.032;9.410;2023-02-28T05:13:02;5.30;;;2.15;;
71572;SDS011;59408;51.032;9.410;2023-02-28T05:15:29;5.70;;;2.37;;
71572;SDS011;59408;51.032;9.410;2023-02-28T05:17:56;4.82;;;1.92;;
71572;SDS011;59408;51.032;9.410;2023-02-28T05:20:23;6.28;;;2.30;;
71572;SDS011;59408;51.032;9.410;2023-02-28T05:22:49;6.43;;;2.20;;
71572;SDS011;59408;51.032;9.410;2023-02-28T05:25:17;7.50;;;2.45;;
71572;SDS011;59408;51.032;9.410;2023-02-28T05:27:46;5.13;;;2.00;;
71572;SDS011;59408;51.032;9.410;2023-02-28T05:30:13;5.50;;;2.15;;
71572;SDS011;59408;51.032;9.410;2023-02-28T05:32:41;5.10;;;1.92;;
71572;SDS011;59408;51.032;9.410;2023-02-28T05:35:08;4.82;;;2.22;;
71572;SDS011;59408;51.032;9.410;2023-02-28T05:37:35;6.28;;;2.83;;
71572;SDS011;59408;51.032;9.410;2023-02-28T05:40:02;5.40;;;2.30;;
71572;SDS011;59408;51.032;9.410;2023-02-28T05:42:28;5.07;;;2.40;;
71572;SDS011;59408;51.032;9.410;2023-02-28T05:44:55;5.38;;;2.33;;
71572;SDS011;59408;51.032;9.410;2023-02-28T05:47:22;5.55;;;2.50;;
71572;SDS011;59408;51.032;9.410;2023-02-28T05:49:49;6.45;;;2.20;;
71572;SDS011;59408;51.032;9.410;2023-02-28T05:52:16;6.27;;;2.20;;
71572;SDS011;59408;51.032;9.410;2023-02-28T05:54:43;5.82;;;2.60;;
71572;SDS011;59408;51.032;9.410;2023-02-28T05:57:09;7.55;;;2.45;;
71572;SDS011;59408;51.032;9.410;2023-02-28T05:59:49;5.50;;;2.47;;
71572;SDS011;59408;51.032;9.410;2023-02-28T06:02:16;7.30;;;2.72;;
71572;SDS011;59408;51.032;9.410;2023-02-28T06:04:44;5.53;;;2.30;;
71572;SDS011;59408;51.032;9.410;2023-02-28T06:07:12;5.70;;;2.38;;
71572;SDS011;59408;51.032;9.410;2023-02-28T06:09:39;5.45;;;2.50;;
71572;SDS011;59408;51.032;9.410;2023-02-28T06:12:06;5.45;;;2.25;;
71572;SDS011;59408;51.032;9.410;2023-02-28T06:14:33;6.07;;;2.92;;
71572;SDS011;59408;51.032;9.410;2023-02-28T06:17:00;4.90;;;2.33;;
71572;SDS011;59408;51.032;9.410;2023-02-28T06:19:27;5.57;;;2.22;;
71572;SDS011;59408;51.032;9.410;2023-02-28T06:21:54;6.25;;;2.50;;
71572;SDS011;59408;51.032;9.410;2023-02-28T06:24:23;6.40;;;2.40;;
71572;SDS011;59408;51.032;9.410;2023-02-28T06:26:51;6.22;;;2.42;;
71572;SDS011;59408;51.032;9.410;2023-02-28T06:29:18;5.57;;;2.53;;
71572;SDS011;59408;51.032;9.410;2023-02-28T06:31:44;6.80;;;2.70;;
71572;SDS011;59408;51.032;9.410;2023-02-28T06:34:12;5.72;;;2.45;;
71572;SDS011;59408;51.032;9.410;2023-02-28T06:36:39;5.22;;;2.15;;
71572;SDS011;59408;51.032;9.410;2023-02-28T06:39:07;6.07;;;2.53;;
71572;SDS011;59408;51.032;9.410;2023-02-28T06:41:36;6.43;;;2.70;;
71572;SDS011;59408;51.032;9.410;2023-02-28T06:44:19;5.63;;;2.10;;
71572;SDS011;59408;51.032;9.410;2023-02-28T06:46:46;6.22;;;2.60;;
71572;SDS011;59408;51.032;9.410;2023-02-28T06:49:13;5.43;;;2.45;;
71572;SDS011;59408;51.032;9.410;2023-02-28T06:51:41;6.47;;;2.38;;
71572;SDS011;59408;51.032;9.410;2023-02-28T06:54:09;6.13;;;2.40;;
71572;SDS011;59408;51.032;9.410;2023-02-28T06:56:37;5.53;;;2.55;;
71572;SDS011;59408;51.032;9.410;2023-02-28T06:59:04;5.88;;;2.30;;
71572;SDS011;59408;51.032;9.410;2023-02-28T07:01:31;6.50;;;2.60;;
71572;SDS011;59408;51.032;9.410;2023-02-28T07:03:59;7.10;;;2.72;;
71572;SDS011;59408;51.032;9.410;2023-02-28T07:06:26;5.87;;;2.47;;
71572;SDS011;59408;51.032;9.410;2023-02-28T07:08:53;7.53;;;2.50;;
71572;SDS011;59408;51.032;9.410;2023-02-28T07:11:20;9.15;;;2.95;;
71572;SDS011;59408;51.032;9.410;2023-02-28T07:13:50;8.15;;;2.30;;
71572;SDS011;59408;51.032;9.410;2023-02-28T07:16:17;7.70;;;2.50;;
71572;SDS011;59408;51.032;9.410;2023-02-28T07:18:44;6.43;;;2.20;;
71572;SDS011;59408;51.032;9.410;2023-02-28T07:21:10;6.75;;;2.55;;
71572;SDS011;59408;51.032;9.410;2023-02-28T07:23:37;5.80;;;2.10;;
71572;SDS011;59408;51.032;9.410;2023-02-28T07:26:05;6.13;;;2.63;;
71572;SDS011;59408;51.032;9.410;2023-02-28T07:28:31;9.82;;;2.60;;
71572;SDS011;59408;51.032;9.410;2023-02-28T07:31:04;7.43;;;2.47;;
71572;SDS011;59408;51.032;9.410;2023-02-28T07:33:30;6.25;;;2.95;;
71572;SDS011;59408;51.032;9.410;2023-02-28T07:36:00;6.75;;;2.70;;
71572;SDS011;59408;51.032;9.410;2023-02-28T07:38:27;5.65;;;2.38;;
71572;SDS011;59408;51.032;9.410;2023-02-28T07:40:54;6.15;;;2.42;;
71572;SDS011;59408;51.032;9.410;2023-02-28T07:43:20;7.87;;;2.60;;
71572;SDS011;59408;51.032;9.410;2023-02-28T07:45:47;7.32;;;2.70;;
71572;SDS011;59408;51.032;9.410;2023-02-28T07:48:15;6.85;;;2.97;;
71572;SDS011;59408;51.032;9.410;2023-02-28T07:50:41;6.38;;;3.13;;
71572;SDS011;59408;51.032;9.410;2023-02-28T07:53:08;6.38;;;2.85;;
71572;SDS011;59408;51.032;9.410;2023-02-28T07:55:34;7.77;;;3.07;;
71572;SDS011;59408;51.032;9.410;2023-02-28T07:58:01;5.68;;;2.50;;
71572;SDS011;59408;51.032;9.410;2023-02-28T08:00:28;8.55;;;3.08;;
71572;SDS011;59408;51.032;9.410;2023-02-28T08:02:54;7.10;;;2.90;;
71572;SDS011;59408;51.032;9.410;2023-02-28T08:05:22;6.13;;;2.50;;
71572;SDS011;59408;51.032;9.410;2023-02-28T08:07:49;7.30;;;3.00;;
71572;SDS011;59408;51.032;9.410;2023-02-28T08:10:16;5.60;;;2.25;;
71572;SDS011;59408;51.032;9.410;2023-02-28T08:12:43;6.43;;;2.88;;
71572;SDS011;59408;51.032;9.410;2023-02-28T08:15:09;7.28;;;3.20;;
71572;SDS011;59408;51.032;9.410;2023-02-28T08:17:36;6.30;;;2.67;;
71572;SDS011;59408;51.032;9.410;2023-02-28T08:20:03;7.20;;;2.67;;
71572;SDS011;59408;51.032;9.410;2023-02-28T08:22:32;8.63;;;3.03;;
71572;SDS011;59408;51.032;9.410;2023-02-28T08:24:58;6.55;;;3.13;;
71572;SDS011;59408;51.032;9.410;2023-02-28T08:27:25;6.10;;;2.53;;
71572;SDS011;59408;51.032;9.410;2023-02-28T08:29:51;6.72;;;2.70;;
71572;SDS011;59408;51.032;9.410;2023-02-28T08:32:18;6.93;;;3.00;;
71572;SDS011;59408;51.032;9.410;2023-02-28T08:34:55;8.02;;;2.90;;
71572;SDS011;59408;51.032;9.410;2023-02-28T08:37:22;6.97;;;2.88;;
71572;SDS011;59408;51.032;9.410;2023-02-28T08:39:50;6.72;;;3.05;;
71572;SDS011;59408;51.032;9.410;2023-02-28T08:42:19;7.80;;;3.05;;
71572;SDS011;59408;51.032;9.410;2023-02-28T08:44:45;9.93;;;3.30;;
71572;SDS011;59408;51.032;9.410;2023-02-28T08:47:12;7.13;;;2.95;;
71572;SDS011;59408;51.032;9.410;2023-02-28T08:49:39;7.45;;;3.25;;
71572;SDS011;59408;51.032;9.410;2023-02-28T08:52:05;5.97;;;2.70;;
71572;SDS011;59408;51.032;9.410;2023-02-28T08:54:32;6.80;;;3.08;;
71572;SDS011;59408;51.032;9.410;2023-02-28T08:57:00;6.73;;;2.87;;
71572;SDS011;59408;51.032;9.410;2023-02-28T08:59:27;6.78;;;3.35;;
71572;SDS011;59408;51.032;9.410;2023-02-28T09:01:55;7.15;;;3.10;;
71572;SDS011;59408;51.032;9.410;2023-02-28T09:04:21;6.57;;;2.80;;
71572;SDS011;59408;51.032;9.410;2023-02-28T09:06:50;7.65;;;3.33;;
71572;SDS011;59408;51.032;9.410;2023-02-28T09:09:17;7.17;;;3.20;;
71572;SDS011;59408;51.032;9.410;2023-02-28T09:11:43;8.35;;;3.30;;
71572;SDS011;59408;51.032;9.410;2023-02-28T09:14:12;6.35;;;3.00;;
71572;SDS011;59408;51.032;9.410;2023-02-28T09:16:38;9.48;;;3.33;;
71572;SDS011;59408;51.032;9.410;2023-02-28T09:19:05;6.70;;;3.28;;
71572;SDS011;59408;51.032;9.410;2023-02-28T09:21:31;7.63;;;3.30;;
71572;SDS011;59408;51.032;9.410;2023-02-28T09:23:58;8.63;;;3.75;;
71572;SDS011;59408;51.032;9.410;2023-02-28T09:26:26;6.90;;;3.30;;
71572;SDS011;59408;51.032;9.410;2023-02-28T09:29:08;8.10;;;3.50;;
71572;SDS011;59408;51.032;9.410;2023-02-28T09:31:36;9.85;;;3.75;;
71572;SDS011;59408;51.032;9.410;2023-02-28T09:34:03;7.80;;;3.57;;
71572;SDS011;59408;51.032;9.410;2023-02-28T09:36:30;9.32;;;3.92;;
71572;SDS011;59408;51.032;9.410;2023-02-28T09:39:09;7.72;;;3.72;;
71572;SDS011;59408;51.032;9.410;2023-02-28T09:41:37;7.85;;;3.88;;
71572;SDS011;59408;51.032;9.410;2023-02-28T09:44:05;8.82;;;3.90;;
71572;SDS011;59408;51.032;9.410;2023-02-28T09:46:38;10.47;;;4.03;;
71572;SDS011;59408;51.032;9.410;2023-02-28T09:49:10;9.25;;;3.47;;
71572;SDS011;59408;51.032;9.410;2023-02-28T09:51:43;8.68;;;3.72;;
71572;SDS011;59408;51.032;9.410;2023-02-28T09:54:15;9.05;;;3.90;;
71572;SDS011;59408;51.032;9.410;2023-02-28T09:56:44;9.70;;;4.00;;
71572;SDS011;59408;51.032;9.410;2023-02-28T09:59:17;8.40;;;3.70;;
71572;SDS011;59408;51.032;9.410;2023-02-28T10:01:59;7.50;;;3.40;;
71572;SDS011;59408;51.032;9.410;2023-02-28T10:04:37;8.30;;;3.88;;
71572;SDS011;59408;51.032;9.410;2023-02-28T10:07:14;8.00;;;3.70;;
71572;SDS011;59408;51.032;9.410;2023-02-28T10:09:49;9.40;;;3.50;;
71572;SDS011;59408;51.032;9.410;2023-02-28T10:12:20;8.40;;;3.67;;
71572;SDS011;59408;51.032;9.410;2023-02-28T10:14:47;8.48;;;3.47;;
71572;SDS011;59408;51.032;9.410;2023-02-28T10:17:19;8.15;;;3.33;;
71572;SDS011;59408;51.032;9.410;2023-02-28T10:19:53;8.60;;;3.88;;
71572;SDS011;59408;51.032;9.410;2023-02-28T10:22:25;8.27;;;3.67;;
71572;SDS011;59408;51.032;9.410;2023-02-28T10:24:56;8.70;;;4.00;;
71572;SDS011;59408;51.032;9.410;2023-02-28T10:27:24;9.02;;;4.45;;
71572;SDS011;59408;51.032;9.410;2023-02-28T10:29:54;7.97;;;3.92;;
71572;SDS011;59408;51.032;9.410;2023-02-28T10:32:25;9.88;;;3.90;;
71572;SDS011;59408;51.032;9.410;2023-02-28T10:34:55;8.38;;;4.22;;
71572;SDS011;59408;51.032;9.410;2023-02-28T10:37:25;8.23;;;3.77;;
71572;SDS011;59408;51.032;9.410;2023-02-28T10:39:51;8.55;;;3.60;;
71572;SDS011;59408;51.032;9.410;2023-02-28T10:42:19;10.13;;;4.40;;
71572;SDS011;59408;51.032;9.410;2023-02-28T10:44:48;8.90;;;3.67;;
71572;SDS011;59408;51.032;9.410;2023-02-28T10:47:15;8.32;;;3.95;;
71572;SDS011;59408;51.032;9.410;2023-02-28T10:49:48;8.27;;;4.00;;
71572;SDS011;59408;51.032;9.410;2023-02-28T10:55:14;8.10;;;3.40;;
71572;SDS011;59408;51.032;9.410;2023-02-28T10:57:47;8.63;;;3.70;;
71572;SDS011;59408;51.032;9.410;2023-02-28T11:00:15;9.10;;;4.07;;
71572;SDS011;59408;51.032;9.410;2023-02-28T11:02:43;8.67;;;4.80;;
71572;SDS011;59408;51.032;9.410;2023-02-28T11:05:24;8.45;;;3.92;;
71572;SDS011;59408;51.032;9.410;2023-02-28T11:07:53;8.80;;;3.85;;
71572;SDS011;59408;51.032;9.410;2023-02-28T11:10:21;8.80;;;3.70;;
71572;SDS011;59408;51.032;9.410;2023-02-28T11:12:54;8.07;;;3.90;;
71572;SDS011;59408;51.032;9.410;2023-02-28T11:15:25;7.40;;;3.77;;
71572;SDS011;59408;51.032;9.410;2023-02-28T11:17:53;7.43;;;3.70;;
71572;SDS011;59408;51.032;9.410;2023-02-28T11:20:23;8.27;;;3.95;;
71572;SDS011;59408;51.032;9.410;2023-02-28T11:22:54;7.70;;;3.50;;
71572;SDS011;59408;51.032;9.410;2023-02-28T11:25:23;7.82;;;4.07;;
71572;SDS011;59408;51.032;9.410;2023-02-28T11:27:53;6.90;;;3.70;;
71572;SDS011;59408;51.032;9.410;2023-02-28T11:30:25;7.13;;;3.63;;
71572;SDS011;59408;51.032;9.410;2023-02-28T11:32:57;7.63;;;3.65;;
71572;SDS011;59408;51.032;9.410;2023-02-28T11:35:26;8.90;;;4.20;;
71572;SDS011;59408;51.032;9.410;2023-02-28T11:37:57;8.40;;;4.20;;
71572;SDS011;59408;51.032;9.410;2023-02-28T11:40:25;7.77;;;3.80;;
71572;SDS011;59408;51.032;9.410;2023-02-28T11:43:06;7.82;;;4.03;;
71572;SDS011;59408;51.032;9.410;2023-02-28T11:45:49;8.88;;;4.10;;
71572;SDS011;59408;51.032;9.410;2023-02-28T11:48:38;9.15;;;3.92;;
71572;SDS011;59408;51.032;9.410;2023-02-28T11:51:17;8.27;;;4.30;;
71572;SDS011;59408;51.032;9.410;2023-02-28T11:53:50;8.73;;;4.17;;
71572;SDS011;59408;51.032;9.410;2023-02-28T11:56:30;7.88;;;3.90;;
71572;SDS011;59408;51.032;9.410;2023-02-28T11:59:06;8.73;;;4.00;;
71572;SDS011;59408;51.032;9.410;2023-02-28T12:01:52;8.00;;;4.10;;
71572;SDS011;59408;51.032;9.410;2023-02-28T12:04:31;10.50;;;3.85;;
71572;SDS011;59408;51.032;9.410;2023-02-28T12:07:09;8.67;;;4.00;;
71572;SDS011;59408;51.032;9.410;2023-02-28T12:09:44;7.82;;;4.05;;
71572;SDS011;59408;51.032;9.410;2023-02-28T12:12:23;8.50;;;4.28;;
71572;SDS011;59408;51.032;9.410;2023-02-28T12:15:02;8.38;;;4.40;;
71572;SDS011;59408;51.032;9.410;2023-02-28T12:17:51;9.98;;;4.93;;
71572;SDS011;59408;51.032;9.410;2023-02-28T12:20:31;8.87;;;4.30;;
71572;SDS011;59408;51.032;9.410;2023-02-28T12:25:52;8.93;;;4.20;;
71572;SDS011;59408;51.032;9.410;2023-02-28T12:28:28;8.00;;;4.20;;
71572;SDS011;59408;51.032;9.410;2023-02-28T12:31:01;8.50;;;4.28;;
71572;SDS011;59408;51.032;9.410;2023-02-28T12:33:33;9.07;;;4.20;;
71572;SDS011;59408;51.032;9.410;2023-02-28T12:36:03;7.40;;;3.90;;
71572;SDS011;59408;51.032;9.410;2023-02-28T12:38:36;7.72;;;3.90;;
71572;SDS011;59408;51.032;9.410;2023-02-28T12:41:09;8.48;;;4.00;;
71572;SDS011;59408;51.032;9.410;2023-02-28T12:43:41;8.38;;;4.00;;
71572;SDS011;59408;51.032;9.410;2023-02-28T12:46:11;8.90;;;4.30;;
71572;SDS011;59408;51.032;9.410;2023-02-28T12:48:42;8.07;;;3.92;;
71572;SDS011;59408;51.032;9.410;2023-02-28T12:51:10;8.85;;;4.35;;
71572;SDS011;59408;51.032;9.410;2023-02-28T12:53:44;9.15;;;3.80;;
71572;SDS011;59408;51.032;9.410;2023-02-28T12:56:20;8.27;;;4.32;;
71572;SDS011;59408;51.032;9.410;2023-02-28T12:58:56;7.60;;;3.90;;
71572;SDS011;59408;51.032;9.410;2023-02-28T13:01:46;7.55;;;4.18;;
71572;SDS011;59408;51.032;9.410;2023-02-28T13:04:34;7.75;;;3.80;;
71572;SDS011;59408;51.032;9.410;2023-02-28T13:07:20;7.93;;;3.60;;
71572;SDS011;59408;51.032;9.410;2023-02-28T13:10:16;7.80;;;3.80;;
71572;SDS011;59408;51.032;9.410;2023-02-28T13:12:48;7.60;;;3.80;;
71572;SDS011;59408;51.032;9.410;2023-02-28T13:15:19;7.85;;;3.67;;
71572;SDS011;59408;51.032;9.410;2023-02-28T13:17:51;8.38;;;4.13;;
71572;SDS011;59408;51.032;9.410;2023-02-28T13:20:19;9.15;;;4.38;;
71572;SDS011;59408;51.032;9.410;2023-02-28T13:22:49;7.32;;;3.97;;
71572;SDS011;59408;51.032;9.410;2023-02-28T13:34:46;7.30;;;3.80;;
71572;SDS011;59408;51.032;9.410;2023-02-28T13:37:34;7.75;;;4.20;;
71572;SDS011;59408;51.032;9.410;2023-02-28T13:42:55;8.30;;;4.47;;
71572;SDS011;59408;51.032;9.410;2023-02-28T13:45:25;8.93;;;4.35;;
71572;SDS011;59408;51.032;9.410;2023-02-28T13:47:58;9.45;;;4.53;;
71572;SDS011;59408;51.032;9.410;2023-02-28T13:50:28;9.10;;;4.70;;
71572;SDS011;59408;51.032;9.410;2023-02-28T13:53:02;8.27;;;4.47;;
71572;SDS011;59408;51.032;9.410;2023-02-28T13:55:45;7.95;;;4.28;;
71572;SDS011;59408;51.032;9.410;2023-02-28T13:58:24;8.55;;;4.43;;
71572;SDS011;59408;51.032;9.410;2023-02-28T14:01:05;8.40;;;4.20;;
71572;SDS011;59408;51.032;9.410;2023-02-28T14:06:46;9.57;;;4.50;;
71572;SDS011;59408;51.032;9.410;2023-02-28T14:09:17;8.52;;;4.40;;
71572;SDS011;59408;51.032;9.410;2023-02-28T14:11:47;7.53;;;3.92;;
71572;SDS011;59408;51.032;9.410;2023-02-28T14:17:16;7.60;;;4.38;;
71572;SDS011;59408;51.032;9.410;2023-02-28T14:19:44;8.27;;;4.23;;
71572;SDS011;59408;51.032;9.410;2023-02-28T14:22:19;8.43;;;4.15;;
71572;SDS011;59408;51.032;9.410;2023-02-28T14:25:08;7.78;;;4.35;;
71572;SDS011;59408;51.032;9.410;2023-02-28T14:27:43;9.45;;;4.60;;
71572;SDS011;59408;51.032;9.410;2023-02-28T14:33:17;7.50;;;4.00;;
71572;SDS011;59408;51.032;9.410;2023-02-28T14:35:53;8.25;;;4.20;;
71572;SDS011;59408;51.032;9.410;2023-02-28T14:38:27;9.00;;;4.75;;
71572;SDS011;59408;51.032;9.410;2023-02-28T14:40:58;8.77;;;4.30;;
71572;SDS011;59408;51.032;9.410;2023-02-28T14:43:29;8.65;;;4.32;;
71572;SDS011;59408;51.032;9.410;2023-02-28T14:45:56;8.83;;;4.17;;
71572;SDS011;59408;51.032;9.410;2023-02-28T14:48:27;8.15;;;4.40;;
71572;SDS011;59408;51.032;9.410;2023-02-28T14:50:54;9.27;;;4.20;;
71572;SDS011;59408;51.032;9.410;2023-02-28T14:53:24;8.52;;;4.35;;
71572;SDS011;59408;51.032;9.410;2023-02-28T14:55:53;9.35;;;4.75;;
71572;SDS011;59408;51.032;9.410;2023-02-28T14:58:21;9.00;;;4.70;;
71572;SDS011;59408;51.032;9.410;2023-02-28T15:00:53;8.13;;;4.38;;
71572;SDS011;59408;51.032;9.410;2023-02-28T15:03:22;7.28;;;4.30;;
71572;SDS011;59408;51.032;9.410;2023-02-28T15:05:55;8.48;;;4.32;;
71572;SDS011;59408;51.032;9.410;2023-02-28T15:08:23;7.68;;;4.30;;
71572;SDS011;59408;51.032;9.410;2023-02-28T15:10:51;9.43;;;4.33;;
71572;SDS011;59408;51.032;9.410;2023-02-28T15:13:20;8.48;;;4.40;;
71572;SDS011;59408;51.032;9.410;2023-02-28T15:15:49;8.70;;;4.43;;
71572;SDS011;59408;51.032;9.410;2023-02-28T15:18:31;8.98;;;4.70;;
71572;SDS011;59408;51.032;9.410;2023-02-28T15:21:07;8.20;;;4.70;;
71572;SDS011;59408;51.032;9.410;2023-02-28T15:23:44;8.73;;;4.50;;
71572;SDS011;59408;51.032;9.410;2023-02-28T15:26:13;8.68;;;4.75;;
71572;SDS011;59408;51.032;9.410;2023-02-28T15:28:43;9.98;;;5.18;;
71572;SDS011;59408;51.032;9.410;2023-02-28T15:31:21;8.65;;;4.50;;
71572;SDS011;59408;51.032;9.410;2023-02-28T15:33:52;9.32;;;5.05;;
71572;SDS011;59408;51.032;9.410;2023-02-28T15:36:21;8.87;;;4.87;;
71572;SDS011;59408;51.032;9.410;2023-02-28T15:38:53;8.25;;;4.45;;